Terminal Aerodrome Forecast
Issued by NWS Sioux Falls, SD

Home | Current Version | Previous Version | Text Only | Print | Product List | Glossary On
Versions: 1 2 3 4 5 6 7 8 9 10 11 12 13 14 15 16 17
000
FTUS43 KFSD 310520
TAFFSD
TAF
KFSD 310520Z 3106/0106 VRB04KT P6SM BKN250
     FM311200 04008KT P6SM OVC008
     FM311600 05012KT P6SM SCT008 OVC015
     FM312300 05017KT 3SM -SN SCT008 OVC015
     FM010200 05019KT 1 1/2SM -SN SCT008 OVC015=

USA.gov is the U.S. government's official web portal to all federal, state and local government web resources and services.